createdAt,value
2024-02-05T00:00:56.103Z,118.77
2024-02-05T00:01:56.121Z,120.91
2024-02-05T00:02:55.894Z,121.82
2024-02-05T00:03:55.913Z,121.66
2024-02-05T00:04:55.891Z,120.88
2024-02-05T00:05:55.870Z,120.32
2024-02-05T00:06:56.034Z,120.62
2024-02-05T00:07:58.964Z,121.17
2024-02-05T00:08:55.889Z,121.03
2024-02-05T00:09:55.875Z,119.92
2024-02-05T00:10:55.830Z,120.44
2024-02-05T00:11:55.818Z,121.05
2024-02-05T00:12:55.851Z,120.92
2024-02-05T00:13:55.779Z,120.43
2024-02-05T00:14:55.746Z,120.69
2024-02-05T00:15:55.782Z,121.52
2024-02-05T00:16:55.719Z,123.03
2024-02-05T00:17:55.757Z,120.04
2024-02-05T00:18:55.736Z,120.27
2024-02-05T00:19:55.770Z,121.89
2024-02-05T00:20:55.673Z,123.18
2024-02-05T00:21:55.715Z,123.32
2024-02-05T00:22:55.653Z,123.14
2024-02-05T00:23:55.651Z,123.46
2024-02-05T00:24:55.643Z,123.09
2024-02-05T00:25:55.592Z,125.63
2024-02-05T00:26:55.579Z,127.87
2024-02-05T00:27:55.553Z,128.75
2024-02-05T00:28:55.556Z,128.70
2024-02-05T00:29:55.520Z,130.02
2024-02-05T00:30:55.527Z,127.70
2024-02-05T00:31:55.494Z,124.81
2024-02-05T00:32:55.571Z,123.98
2024-02-05T00:33:55.512Z,123.41
2024-02-05T00:34:55.457Z,121.65
2024-02-05T00:35:55.400Z,124.00
2024-02-05T00:36:55.412Z,123.38
2024-02-05T00:37:55.369Z,122.92
2024-02-05T00:38:55.367Z,121.89
2024-02-05T00:39:55.368Z,122.99
2024-02-05T00:40:55.332Z,124.22
2024-02-05T00:41:55.318Z,124.05
2024-02-05T00:42:55.323Z,121.63
2024-02-05T00:43:55.282Z,120.85
2024-02-05T00:44:55.268Z,117.23
2024-02-05T00:45:55.273Z,114.85
2024-02-05T00:46:55.183Z,115.08
2024-02-05T00:47:55.216Z,115.19
2024-02-05T00:48:55.305Z,114.52
2024-02-05T00:49:55.196Z,115.32
2024-02-05T00:50:55.107Z,115.85
2024-02-05T00:51:55.104Z,117.47
2024-02-05T00:52:55.047Z,118.49
2024-02-05T00:53:55.012Z,118.04
2024-02-05T00:54:54.992Z,117.96
2024-02-05T00:55:54.954Z,117.95
2024-02-05T00:56:54.940Z,116.57
2024-02-05T00:57:55.081Z,116.93
2024-02-05T00:58:55.061Z,114.27
2024-02-05T00:59:55.060Z,112.76
2024-02-05T01:00:55.160Z,112.22
2024-02-05T01:01:55.363Z,112.41
2024-02-05T01:02:55.152Z,113.28
2024-02-05T01:03:55.236Z,113.48
2024-02-05T01:04:55.316Z,117.36
2024-02-05T01:05:58.734Z,119.76
2024-02-05T01:06:55.251Z,119.79
2024-02-05T01:07:55.160Z,120.21
2024-02-05T01:08:55.088Z,120.69
2024-02-05T01:09:55.079Z,120.09
2024-02-05T01:10:55.013Z,120.26
2024-02-05T01:11:54.996Z,119.21
2024-02-05T01:12:55.014Z,118.93
2024-02-05T01:13:54.950Z,116.64
2024-02-05T01:14:54.916Z,114.07
2024-02-05T01:15:54.918Z,112.02
2024-02-05T01:16:54.862Z,110.21
2024-02-05T01:17:54.884Z,110.45
2024-02-05T01:18:54.862Z,111.22
2024-02-05T01:19:54.799Z,109.01
2024-02-05T01:20:54.761Z,109.08
2024-02-05T01:21:54.747Z,109.40
2024-02-05T01:22:54.679Z,109.71
2024-02-05T01:23:54.655Z,111.51
2024-02-05T01:24:54.697Z,114.13
2024-02-05T01:25:54.621Z,112.44
2024-02-05T01:26:54.588Z,109.25
2024-02-05T01:27:54.614Z,107.73
2024-02-05T01:28:54.547Z,102.81
2024-02-05T01:29:54.530Z,99.78
2024-02-05T01:30:54.532Z,98.85
2024-02-05T01:31:54.542Z,98.64
2024-02-05T01:32:54.545Z,102.07
2024-02-05T01:33:54.535Z,102.78
2024-02-05T01:34:54.635Z,102.45
2024-02-05T01:35:54.516Z,102.98
2024-02-05T01:36:54.589Z,103.20
2024-02-05T01:37:54.635Z,105.84
2024-02-05T01:38:54.620Z,103.75
2024-02-05T01:39:54.670Z,103.43
2024-02-05T01:40:54.700Z,104.14
2024-02-05T01:41:54.726Z,104.13
2024-02-05T01:42:54.809Z,103.69
2024-02-05T01:43:54.831Z,102.03
2024-02-05T01:44:54.847Z,103.43
2024-02-05T01:45:54.888Z,102.79
2024-02-05T01:46:54.917Z,103.87
2024-02-05T01:47:55.000Z,95.50
2024-02-05T01:48:55.030Z,92.70
2024-02-05T01:49:55.129Z,93.63
2024-02-05T01:50:55.024Z,94.10
2024-02-05T01:51:55.060Z,95.61
2024-02-05T01:52:55.042Z,95.69
2024-02-05T01:53:55.092Z,95.99
2024-02-05T01:54:55.160Z,96.51
2024-02-05T01:55:55.143Z,91.98
2024-02-05T01:56:55.175Z,90.68
2024-02-05T01:57:55.235Z,90.22
2024-02-05T01:58:55.256Z,93.76
2024-02-05T01:59:55.250Z,94.84
2024-02-05T02:00:55.381Z,98.34
2024-02-05T02:01:55.473Z,99.44
2024-02-05T02:02:55.345Z,100.33
2024-02-05T02:03:55.484Z,99.07
2024-02-05T02:04:55.427Z,99.50
2024-02-05T02:05:55.465Z,98.82
2024-02-05T02:06:55.466Z,100.22
2024-02-05T02:07:55.456Z,103.52
2024-02-05T02:08:55.453Z,105.58
2024-02-05T02:09:55.515Z,104.48
2024-02-05T02:10:55.411Z,106.59
2024-02-05T02:11:55.412Z,106.06
2024-02-05T02:12:55.426Z,108.16
2024-02-05T02:13:55.447Z,110.46
2024-02-05T02:14:55.428Z,111.25
2024-02-05T02:15:55.463Z,113.56
2024-02-05T02:16:55.427Z,115.39
2024-02-05T02:17:55.446Z,116.58
2024-02-05T02:18:55.460Z,117.70
2024-02-05T02:19:55.430Z,117.18
2024-02-05T02:20:55.345Z,117.26
2024-02-05T02:21:55.371Z,117.33
2024-02-05T02:22:55.305Z,117.48
2024-02-05T02:23:55.266Z,117.59
2024-02-05T02:24:55.241Z,114.87
2024-02-05T02:25:55.215Z,115.89
2024-02-05T02:26:55.179Z,115.83
2024-02-05T02:27:55.210Z,114.72
2024-02-05T02:28:55.141Z,113.94
2024-02-05T02:29:55.159Z,111.56
2024-02-05T02:30:55.129Z,110.69
2024-02-05T02:31:55.043Z,111.41
2024-02-05T02:32:55.126Z,113.33
2024-02-05T02:33:55.155Z,114.42
2024-02-05T02:34:55.108Z,114.53
2024-02-05T02:35:54.964Z,116.16
2024-02-05T02:36:55.007Z,117.27
2024-02-05T02:37:54.909Z,118.22
2024-02-05T02:38:54.894Z,119.53
2024-02-05T02:39:54.885Z,119.80
2024-02-05T02:40:54.860Z,118.75
2024-02-05T02:41:54.840Z,116.93
2024-02-05T02:42:54.858Z,117.00
2024-02-05T02:43:54.848Z,115.54
2024-02-05T02:44:54.815Z,116.16
2024-02-05T02:45:54.866Z,115.71
2024-02-05T02:46:54.859Z,114.75
2024-02-05T02:47:54.891Z,115.73
2024-02-05T02:48:56.022Z,114.23
2024-02-05T02:49:54.950Z,114.06
2024-02-05T02:50:54.975Z,114.37
2024-02-05T02:51:55.032Z,114.03
2024-02-05T02:52:55.048Z,111.73
2024-02-05T02:53:55.016Z,110.02
2024-02-05T02:54:55.045Z,106.45
2024-02-05T02:55:55.076Z,104.65
2024-02-05T02:56:55.129Z,106.34
2024-02-05T02:57:55.180Z,111.86
2024-02-05T02:58:55.210Z,115.06
2024-02-05T02:59:55.202Z,116.91
2024-02-05T03:00:55.300Z,119.36
2024-02-05T03:01:55.371Z,118.86
2024-02-05T03:02:55.268Z,116.04
2024-02-05T03:03:55.381Z,113.97
2024-02-05T03:04:55.444Z,114.41
2024-02-05T03:05:55.373Z,116.30
2024-02-05T03:06:55.399Z,116.70
2024-02-05T03:07:55.420Z,114.12
2024-02-05T03:08:55.486Z,111.76
2024-02-05T03:09:55.533Z,111.57
2024-02-05T03:10:55.550Z,112.07
2024-02-05T03:11:55.554Z,112.61
2024-02-05T03:12:55.569Z,110.96
2024-02-05T03:13:55.582Z,111.07
2024-02-05T03:14:55.638Z,113.29
2024-02-05T03:15:55.675Z,112.61
2024-02-05T03:16:55.702Z,111.73
2024-02-05T03:17:55.812Z,112.48
2024-02-05T03:18:55.832Z,112.56
2024-02-05T03:19:55.878Z,112.59
2024-02-05T03:20:55.700Z,112.81
2024-02-05T03:21:55.705Z,112.99
2024-02-05T03:23:02.613Z,114.51
2024-02-05T03:23:56.669Z,112.65
2024-02-05T03:24:55.710Z,113.26
2024-02-05T03:25:55.613Z,114.09
2024-02-05T03:26:55.577Z,115.06
2024-02-05T03:27:55.570Z,115.84
2024-02-05T03:28:55.575Z,116.42
2024-02-05T03:29:55.535Z,113.91
2024-02-05T03:30:55.629Z,112.35
2024-02-05T03:31:55.544Z,112.73
2024-02-05T03:32:55.455Z,113.29
2024-02-05T03:33:55.565Z,113.03
2024-02-05T03:34:55.451Z,110.99
2024-02-05T03:35:55.393Z,106.14
2024-02-05T03:36:55.467Z,107.37
2024-02-05T03:37:55.380Z,109.46
2024-02-05T03:38:55.351Z,109.04
2024-02-05T03:39:55.322Z,108.08
2024-02-05T03:40:55.356Z,108.15
2024-02-05T03:41:55.385Z,108.98
2024-02-05T03:42:55.550Z,106.96
2024-02-05T03:43:55.427Z,107.74
2024-02-05T03:44:55.430Z,107.29
2024-02-05T03:45:55.567Z,108.97
2024-02-05T03:46:55.530Z,110.74
2024-02-05T03:47:55.560Z,110.54
2024-02-05T03:48:55.678Z,110.77
2024-02-05T03:49:55.677Z,112.31
2024-02-05T03:50:55.512Z,110.13
2024-02-05T03:51:55.541Z,109.83
2024-02-05T03:52:55.542Z,110.95
2024-02-05T03:53:55.486Z,111.99
2024-02-05T03:54:55.543Z,109.93
2024-02-05T03:55:55.557Z,109.57
2024-02-05T03:56:55.592Z,107.11
2024-02-05T03:57:55.643Z,104.52
2024-02-05T03:58:55.664Z,100.66
2024-02-05T03:59:55.700Z,96.37
2024-02-05T04:00:55.791Z,100.05
2024-02-05T04:01:55.913Z,106.98
2024-02-05T04:02:55.816Z,109.91
2024-02-05T04:03:55.984Z,110.67
2024-02-05T04:04:55.918Z,109.20
2024-02-05T04:05:55.959Z,111.55
2024-02-05T04:06:55.995Z,115.90
2024-02-05T04:07:56.002Z,125.05
2024-02-05T04:08:56.030Z,131.27
2024-02-05T04:09:56.069Z,132.04
2024-02-05T04:10:56.095Z,132.93
2024-02-05T04:11:56.136Z,129.65
2024-02-05T04:12:56.351Z,128.80
2024-02-05T04:13:56.273Z,124.84
2024-02-05T04:14:56.296Z,127.97
2024-02-05T04:15:56.289Z,126.48
2024-02-05T04:16:56.269Z,124.10
2024-02-05T04:17:56.311Z,124.42
2024-02-05T04:18:56.314Z,118.00
2024-02-05T04:19:56.291Z,112.85
2024-02-05T04:20:56.242Z,109.92
2024-02-05T04:21:56.262Z,111.97
2024-02-05T04:22:56.215Z,108.88
2024-02-05T04:23:56.195Z,108.17
2024-02-05T04:24:56.192Z,108.22
2024-02-05T04:25:56.192Z,107.60
2024-02-05T04:26:56.154Z,107.86
2024-02-05T04:27:56.203Z,107.02
2024-02-05T04:28:56.117Z,108.62
2024-02-05T04:29:56.136Z,108.90
2024-02-05T04:30:56.160Z,110.81
2024-02-05T04:31:56.125Z,112.78
2024-02-05T04:32:56.187Z,113.54
2024-02-05T04:33:56.171Z,114.97
2024-02-05T04:34:56.217Z,116.63
2024-02-05T04:35:56.127Z,120.04
2024-02-05T04:36:56.204Z,121.98
2024-02-05T04:37:56.160Z,122.12
2024-02-05T04:38:56.207Z,121.05
2024-02-05T04:39:56.280Z,118.50
2024-02-05T04:40:56.252Z,117.79
2024-02-05T04:41:56.294Z,119.17
2024-02-05T04:42:56.348Z,119.39
2024-02-05T04:43:56.316Z,120.49
2024-02-05T04:44:56.330Z,120.26
2024-02-05T04:45:56.382Z,118.25
2024-02-05T04:46:56.378Z,120.10
2024-02-05T04:47:56.452Z,122.66
2024-02-05T04:48:56.562Z,124.50
2024-02-05T04:49:56.581Z,125.66
2024-02-05T04:50:56.508Z,125.97
2024-02-05T04:51:56.553Z,129.29
2024-02-05T04:52:56.568Z,128.24
2024-02-05T04:53:56.605Z,129.70
2024-02-05T04:54:56.695Z,130.92
2024-02-05T04:55:56.689Z,129.68
2024-02-05T04:56:56.709Z,128.76
2024-02-05T04:57:56.810Z,122.63
2024-02-05T04:58:56.856Z,119.23
2024-02-05T04:59:56.865Z,116.38
2024-02-05T05:00:56.898Z,116.46
2024-02-05T05:01:56.964Z,116.80
2024-02-05T05:02:56.842Z,117.42
2024-02-05T05:03:56.862Z,118.17
2024-02-05T05:04:56.865Z,121.05
2024-02-05T05:05:56.837Z,124.77
2024-02-05T05:06:56.872Z,126.09
2024-02-05T05:07:56.867Z,127.06
2024-02-05T05:08:56.812Z,126.17
2024-02-05T05:09:56.810Z,125.69
2024-02-05T05:10:56.775Z,117.88
2024-02-05T05:11:56.741Z,116.43
2024-02-05T05:12:56.774Z,118.00
2024-02-05T05:13:56.742Z,118.14
2024-02-05T05:14:56.719Z,118.76
2024-02-05T05:15:56.742Z,120.03
2024-02-05T05:16:56.750Z,122.11
2024-02-05T05:17:56.779Z,118.31
2024-02-05T05:18:56.781Z,119.24
2024-02-05T05:19:56.729Z,118.10
2024-02-05T05:20:56.696Z,118.99
2024-02-05T05:21:56.750Z,120.75
2024-02-05T05:22:57.166Z,123.89
2024-02-05T05:23:56.662Z,128.10
2024-02-05T05:24:56.650Z,130.46
2024-02-05T05:25:56.625Z,136.95
2024-02-05T05:26:56.598Z,139.40
2024-02-05T05:27:56.615Z,139.97
2024-02-05T05:28:56.599Z,141.59
2024-02-05T05:29:56.602Z,143.07
2024-02-05T05:30:56.639Z,145.18
2024-02-05T05:31:56.619Z,141.61
2024-02-05T05:32:56.668Z,136.05
2024-02-05T05:33:56.718Z,132.22
2024-02-05T05:34:56.703Z,128.10
2024-02-05T05:36:04.500Z,50.00
2024-02-05T05:37:04.519Z,50.00
2024-02-05T05:38:04.567Z,50.00
2024-02-05T05:39:04.872Z,50.00
2024-02-05T05:40:04.514Z,50.00
2024-02-05T05:41:04.485Z,52.27
2024-02-05T05:42:04.501Z,57.34
2024-02-05T05:43:04.435Z,79.20
2024-02-05T05:44:04.443Z,104.02
2024-02-05T05:45:04.473Z,119.57
2024-02-05T05:46:04.467Z,129.82
2024-02-05T05:47:04.443Z,135.97
2024-02-05T05:48:04.443Z,145.85
2024-02-05T05:49:04.968Z,157.38
2024-02-05T05:50:04.539Z,180.02
2024-02-05T05:51:04.380Z,181.83
2024-02-05T05:52:04.455Z,182.39
2024-02-05T05:53:04.503Z,181.17
2024-02-05T05:54:04.432Z,183.42
2024-02-05T05:55:04.444Z,190.73
2024-02-05T05:56:04.379Z,191.55
2024-02-05T05:57:04.369Z,183.26
2024-02-05T05:58:04.377Z,180.98
2024-02-05T05:59:04.356Z,185.25
2024-02-05T06:00:04.344Z,201.64
2024-02-05T06:01:04.382Z,200.05
2024-02-05T06:02:04.399Z,197.93
2024-02-05T06:03:04.295Z,192.21
2024-02-05T06:04:04.413Z,222.82
2024-02-05T06:05:05.857Z,235.46
2024-02-05T06:06:04.320Z,235.60
2024-02-05T06:07:04.312Z,219.51
2024-02-05T06:08:04.250Z,202.65
2024-02-05T06:09:04.271Z,193.81
2024-02-05T06:10:04.287Z,184.57
2024-02-05T06:11:04.329Z,177.80
2024-02-05T06:12:04.229Z,169.11
2024-02-05T06:13:04.266Z,174.46
2024-02-05T06:14:04.270Z,176.74
2024-02-05T06:15:04.228Z,177.10
2024-02-05T06:16:04.244Z,176.88
2024-02-05T06:17:04.204Z,181.79
2024-02-05T06:18:04.261Z,184.96
2024-02-05T06:19:04.292Z,183.86
2024-02-05T06:20:04.194Z,184.09
2024-02-05T06:21:04.164Z,184.75
2024-02-05T06:22:04.174Z,185.91
2024-02-05T06:23:04.145Z,185.97
2024-02-05T06:24:04.145Z,184.55
2024-02-05T06:25:04.124Z,184.63
2024-02-05T06:26:04.080Z,182.38
2024-02-05T06:27:04.057Z,183.07
2024-02-05T06:28:07.295Z,189.60
2024-02-05T06:29:05.103Z,189.81
2024-02-05T06:30:04.065Z,191.23
2024-02-05T06:31:04.166Z,190.94
2024-02-05T06:32:04.131Z,198.07
2024-02-05T06:33:04.383Z,212.96
2024-02-05T06:34:08.566Z,230.17
2024-02-05T06:35:05.156Z,191.82
2024-02-05T06:36:03.999Z,198.66
2024-02-05T06:37:04.074Z,208.38
2024-02-05T06:38:03.994Z,217.99
2024-02-05T06:39:04.144Z,227.43
2024-02-05T06:40:04.195Z,209.21
2024-02-05T06:41:04.080Z,197.36
2024-02-05T06:42:04.116Z,195.99
2024-02-05T06:43:04.239Z,196.02
2024-02-05T06:44:04.119Z,196.20
2024-02-05T06:45:04.081Z,209.28
2024-02-05T06:46:04.237Z,246.29
2024-02-05T06:47:04.080Z,284.96
2024-02-05T06:48:04.136Z,259.69
2024-02-05T06:49:04.081Z,230.77
2024-02-05T06:50:06.885Z,212.28
2024-02-05T06:51:04.001Z,200.37
2024-02-05T06:52:04.032Z,195.58
2024-02-05T06:53:04.122Z,189.21
2024-02-05T06:54:03.955Z,183.47
2024-02-05T06:55:03.973Z,176.41
2024-02-05T06:56:03.947Z,172.54
2024-02-05T06:57:04.016Z,172.29
2024-02-05T06:58:04.032Z,171.07
2024-02-05T06:59:03.908Z,169.08
2024-02-05T07:00:03.881Z,169.20
2024-02-05T07:01:03.927Z,168.18
2024-02-05T07:02:06.453Z,168.46
2024-02-05T07:03:03.807Z,168.80
2024-02-05T07:04:03.882Z,170.73
2024-02-05T07:05:04.005Z,172.83
2024-02-05T07:06:04.089Z,164.99
2024-02-05T07:07:03.988Z,164.48
2024-02-05T07:08:03.754Z,182.66
2024-02-05T07:09:03.723Z,192.99
2024-02-05T07:10:03.787Z,200.81
2024-02-05T07:11:03.714Z,196.34
2024-02-05T07:12:03.697Z,182.87
2024-02-05T07:13:03.723Z,166.00
2024-02-05T07:14:05.389Z,159.74
2024-02-05T07:15:03.689Z,165.74
2024-02-05T07:16:03.638Z,171.70
2024-02-05T07:17:03.667Z,171.64
2024-02-05T07:18:03.686Z,165.50
2024-02-05T07:19:03.659Z,152.73
2024-02-05T07:20:03.706Z,150.63
2024-02-05T07:21:03.548Z,153.54
2024-02-05T07:22:06.398Z,153.00
2024-02-05T07:23:04.778Z,148.42
2024-02-05T07:24:03.956Z,148.34
2024-02-05T07:25:04.431Z,146.95
2024-02-05T07:26:03.433Z,145.95
2024-02-05T07:27:03.459Z,150.87
2024-02-05T07:28:03.413Z,158.82
2024-02-05T07:29:03.387Z,159.32
2024-02-05T07:30:03.395Z,159.42
2024-02-05T07:31:03.399Z,154.26
2024-02-05T07:32:03.334Z,146.54
2024-02-05T07:33:03.306Z,148.00
2024-02-05T07:34:03.384Z,145.01
2024-02-05T07:35:03.389Z,140.97
2024-02-05T07:36:03.211Z,145.43
2024-02-05T07:37:03.263Z,143.02
2024-02-05T07:38:03.205Z,140.91
2024-02-05T07:39:03.413Z,136.07
2024-02-05T07:40:03.138Z,134.79
2024-02-05T07:41:05.904Z,134.93
2024-02-05T07:42:03.112Z,135.34
2024-02-05T07:43:03.143Z,134.93
2024-02-05T07:44:03.409Z,134.33
2024-02-05T07:45:03.332Z,131.43
2024-02-05T07:46:03.052Z,129.91
2024-02-05T07:47:03.051Z,134.87
2024-02-05T07:48:03.098Z,135.89
2024-02-05T07:49:03.094Z,139.65
2024-02-05T07:50:03.064Z,150.12
2024-02-05T07:51:02.981Z,164.48
2024-02-05T07:52:03.007Z,165.91
2024-02-05T07:53:02.936Z,162.87
2024-02-05T07:54:03.032Z,156.17
2024-02-05T07:55:06.700Z,148.42
2024-02-05T07:56:04.669Z,145.12
2024-02-05T07:57:05.385Z,133.62
2024-02-05T07:58:03.142Z,123.87
2024-02-05T07:59:03.078Z,121.62
2024-02-05T08:00:03.029Z,118.53
2024-02-05T08:01:04.326Z,120.28
2024-02-05T08:02:05.947Z,121.14
2024-02-05T08:03:03.068Z,123.12
2024-02-05T08:04:03.089Z,125.38
2024-02-05T08:05:03.327Z,134.68
2024-02-05T08:06:02.894Z,134.75
2024-02-05T08:07:02.919Z,137.11
2024-02-05T08:08:02.949Z,129.50
2024-02-05T08:09:02.954Z,124.37
2024-02-05T08:10:03.500Z,128.38
2024-02-05T08:11:02.954Z,128.66
2024-02-05T08:12:03.011Z,129.71
2024-02-05T08:13:05.942Z,129.32
2024-02-05T08:14:02.986Z,127.41
2024-02-05T08:15:02.933Z,129.23
2024-02-05T08:16:03.049Z,129.88
2024-02-05T08:17:04.557Z,132.20
2024-02-05T08:18:02.985Z,132.31
2024-02-05T08:19:02.895Z,133.11
2024-02-05T08:20:02.835Z,133.87
2024-02-05T08:21:02.712Z,134.38
2024-02-05T08:22:03.459Z,133.09
2024-02-05T08:23:02.634Z,129.31
2024-02-05T08:24:02.617Z,133.06
2024-02-05T08:25:02.677Z,133.69
2024-02-05T08:26:02.562Z,136.50
2024-02-05T08:27:02.517Z,140.70
2024-02-05T08:28:02.550Z,147.60
2024-02-05T08:29:02.510Z,154.92
2024-02-05T08:30:02.436Z,157.59
2024-02-05T08:31:02.453Z,151.54
2024-02-05T08:32:04.912Z,149.12
2024-02-05T08:33:02.616Z,146.36
2024-02-05T08:34:02.725Z,140.53
2024-02-05T08:35:02.800Z,136.62
2024-02-05T08:36:02.578Z,140.18
2024-02-05T08:37:02.648Z,135.57
2024-02-05T08:38:02.609Z,136.18
2024-02-05T08:39:02.999Z,157.68
2024-02-05T08:40:02.655Z,161.72
2024-02-05T08:41:02.604Z,161.08
2024-02-05T08:42:12.027Z,164.44
2024-02-05T08:43:03.626Z,165.19
2024-02-05T08:44:02.485Z,169.10
2024-02-05T08:45:04.770Z,172.48
2024-02-05T08:46:02.435Z,164.88
2024-02-05T08:47:02.325Z,167.67
2024-02-05T08:48:02.324Z,170.22
2024-02-05T08:49:02.345Z,177.96
2024-02-05T08:50:02.452Z,179.26
2024-02-05T08:51:02.143Z,182.86
2024-02-05T08:52:02.091Z,184.65
2024-02-05T08:53:02.032Z,173.77
2024-02-05T08:54:02.013Z,158.55
2024-02-05T08:55:01.930Z,152.44
2024-02-05T08:56:01.873Z,153.92
2024-02-05T08:57:01.840Z,143.60
2024-02-05T08:58:01.885Z,135.54
2024-02-05T08:59:01.797Z,126.45
2024-02-05T09:00:01.699Z,133.00
2024-02-05T09:01:02.463Z,133.40
2024-02-05T09:02:01.909Z,136.07
2024-02-05T09:03:02.441Z,139.61
2024-02-05T09:04:01.473Z,134.82
2024-02-05T09:05:01.710Z,134.79
2024-02-05T09:06:01.965Z,130.14
2024-02-05T09:07:01.667Z,130.09
2024-02-05T09:08:01.346Z,135.50
2024-02-05T09:09:01.165Z,138.01
2024-02-05T09:10:01.245Z,131.27
2024-02-05T09:11:01.709Z,125.33
2024-02-05T09:12:06.337Z,112.56
2024-02-05T09:13:02.031Z,106.74
2024-02-05T09:14:01.010Z,106.43
2024-02-05T09:15:01.723Z,103.34
2024-02-05T09:16:00.950Z,116.14
2024-02-05T09:17:03.995Z,184.73
2024-02-05T09:18:00.806Z,212.38
2024-02-05T09:19:00.801Z,214.01
2024-02-05T09:20:00.733Z,205.14
2024-02-05T09:21:00.575Z,188.22
2024-02-05T09:22:00.554Z,183.23
2024-02-05T09:23:00.480Z,174.30
2024-02-05T09:24:00.350Z,158.54
2024-02-05T09:25:00.770Z,145.25
2024-02-05T09:26:00.202Z,142.84
2024-02-05T09:27:00.147Z,142.48
2024-02-05T09:28:00.101Z,124.90
2024-02-05T09:28:59.984Z,112.95
2024-02-05T09:29:59.963Z,101.06
2024-02-05T09:31:08.883Z,90.31
2024-02-05T09:32:01.001Z,90.46
2024-02-05T09:32:59.771Z,90.07
2024-02-05T09:33:59.680Z,90.32
2024-02-05T09:34:59.680Z,90.18
2024-02-05T09:36:00.537Z,78.36
2024-02-05T09:36:59.722Z,76.99
2024-02-05T09:37:59.891Z,74.76
2024-02-05T09:38:59.916Z,73.96
2024-02-05T09:39:59.343Z,73.65
2024-02-05T09:40:59.189Z,71.50
2024-02-05T09:41:59.228Z,75.62
2024-02-05T09:42:59.126Z,74.59
2024-02-05T09:43:59.037Z,70.94
2024-02-05T09:44:58.965Z,62.82
2024-02-05T09:45:58.893Z,65.27
2024-02-05T09:46:58.829Z,65.65
2024-02-05T09:47:58.810Z,68.96
2024-02-05T09:48:58.888Z,74.99
2024-02-05T09:49:58.726Z,89.83
2024-02-05T09:51:00.177Z,105.22
2024-02-05T09:51:58.490Z,101.35
2024-02-05T09:52:58.337Z,95.98
2024-02-05T09:54:07.704Z,102.78
2024-02-05T09:54:59.268Z,88.06
2024-02-05T09:55:58.135Z,81.06
2024-02-05T09:56:58.058Z,85.35
2024-02-05T09:57:58.064Z,84.46
2024-02-05T09:58:57.898Z,82.50
2024-02-05T09:59:57.950Z,89.68
2024-02-05T10:00:57.791Z,107.79
2024-02-05T10:01:57.709Z,119.81
2024-02-05T10:02:57.553Z,104.71
2024-02-05T10:03:57.595Z,89.77
2024-02-05T10:04:57.608Z,94.25
2024-02-05T10:05:57.318Z,95.70
2024-02-05T10:06:58.007Z,97.59
2024-02-05T10:07:57.175Z,100.53
2024-02-05T10:08:57.064Z,96.98
2024-02-05T10:09:56.977Z,96.27
2024-02-05T10:10:56.879Z,96.57
2024-02-05T10:11:56.920Z,98.97
2024-02-05T10:12:56.724Z,105.97
2024-02-05T10:13:56.628Z,116.85
2024-02-05T10:14:56.505Z,141.48
2024-02-05T10:15:56.424Z,136.31
2024-02-05T10:16:56.349Z,125.58
2024-02-05T10:17:56.289Z,110.54
2024-02-05T10:18:56.209Z,81.56
2024-02-05T10:19:56.136Z,71.27
2024-02-05T10:20:55.990Z,58.25
2024-02-05T10:21:55.907Z,86.89
2024-02-05T10:22:55.867Z,106.20
2024-02-05T10:23:55.821Z,91.52
2024-02-05T10:24:55.737Z,101.21
2024-02-05T10:25:55.620Z,108.24
2024-02-05T10:26:55.683Z,102.06
2024-02-05T10:27:55.581Z,108.71
2024-02-05T10:28:55.673Z,119.06
2024-02-05T10:29:55.542Z,111.78
2024-02-05T10:30:55.528Z,98.95
2024-02-05T10:31:55.464Z,87.77
2024-02-05T10:32:55.427Z,75.64
2024-02-05T10:33:55.434Z,60.99
2024-02-05T10:34:55.672Z,54.66
2024-02-05T10:35:55.090Z,51.30
2024-02-05T10:36:55.037Z,41.08
2024-02-05T10:37:54.934Z,9.08
2024-02-05T10:38:54.741Z,0.00
2024-02-05T10:39:54.773Z,0.00
2024-02-05T10:40:54.535Z,0.00
2024-02-05T10:41:54.427Z,0.00
2024-02-05T10:42:54.335Z,0.00
2024-02-05T10:43:54.170Z,0.00
2024-02-05T10:44:54.092Z,0.00
2024-02-05T10:45:54.043Z,0.00
2024-02-05T10:46:55.695Z,0.00
2024-02-05T10:47:53.842Z,0.00
2024-02-05T10:48:53.724Z,0.00
2024-02-05T10:49:53.683Z,0.00
2024-02-05T10:50:53.425Z,0.00
2024-02-05T10:51:53.368Z,0.00
2024-02-05T10:52:53.935Z,0.00
2024-02-05T10:53:53.125Z,0.00
2024-02-05T10:54:53.028Z,0.00
2024-02-05T10:55:52.869Z,0.00
2024-02-05T10:56:52.725Z,0.00
2024-02-05T10:57:52.782Z,0.00
2024-02-05T10:58:52.516Z,0.00
2024-02-05T10:59:52.369Z,0.00
2024-02-05T11:00:52.338Z,0.00
2024-02-05T11:01:52.242Z,0.00
2024-02-05T11:02:52.009Z,0.00
2024-02-05T11:03:51.864Z,0.00
2024-02-05T11:04:51.814Z,6.18
2024-02-05T11:05:52.481Z,17.27
2024-02-05T11:06:51.737Z,26.33
2024-02-05T11:07:51.385Z,29.95
2024-02-05T11:08:51.209Z,29.99
2024-02-05T11:09:51.233Z,38.59
2024-02-05T11:10:51.012Z,47.80
2024-02-05T11:11:50.884Z,47.22
2024-02-05T11:12:50.881Z,49.90
2024-02-05T11:13:50.688Z,50.00
2024-02-05T11:14:50.658Z,50.00
2024-02-05T11:15:50.574Z,50.01
2024-02-05T11:16:50.510Z,42.78
2024-02-05T11:17:50.371Z,42.60
2024-02-05T11:18:50.318Z,43.56
2024-02-05T11:19:50.115Z,45.33
2024-02-05T11:20:49.952Z,47.10
2024-02-05T11:21:52.981Z,50.00
2024-02-05T11:22:50.787Z,50.03
2024-02-05T11:23:49.650Z,50.44
2024-02-05T11:24:49.618Z,50.95
2024-02-05T11:25:49.509Z,52.79
2024-02-05T11:26:49.349Z,52.39
2024-02-05T11:27:49.287Z,53.62
2024-02-05T11:28:49.187Z,54.11
2024-02-05T11:29:49.355Z,49.88
2024-02-05T11:30:49.007Z,50.17
2024-02-05T11:31:48.910Z,50.21
2024-02-05T11:32:48.871Z,50.55
2024-02-05T11:33:48.777Z,50.82
2024-02-05T11:34:48.787Z,50.95
2024-02-05T11:35:49.503Z,45.59
2024-02-05T11:36:48.483Z,47.31
2024-02-05T11:37:48.507Z,49.96
2024-02-05T11:38:48.171Z,54.21
2024-02-05T11:39:48.168Z,55.97
2024-02-05T11:40:47.981Z,56.36
2024-02-05T11:41:47.870Z,53.08
2024-02-05T11:42:47.829Z,55.60
2024-02-05T11:43:47.617Z,52.25
2024-02-05T11:44:47.502Z,50.00
2024-02-05T11:45:47.443Z,50.13
2024-02-05T11:46:47.294Z,50.75
2024-02-05T11:47:48.034Z,52.20
2024-02-05T11:48:47.153Z,50.15
2024-02-05T11:49:47.108Z,50.93
2024-02-05T11:50:46.906Z,52.21
2024-02-05T11:51:46.745Z,53.43
2024-02-05T11:52:46.614Z,52.76
2024-02-05T11:53:47.512Z,55.62
2024-02-05T11:54:46.484Z,54.45
2024-02-05T11:55:46.309Z,55.88
2024-02-05T11:56:46.952Z,58.75
2024-02-05T11:57:46.112Z,59.77
2024-02-05T11:58:45.998Z,60.18
2024-02-05T11:59:50.429Z,57.74
2024-02-05T12:00:45.849Z,57.79
2024-02-05T12:01:45.834Z,58.00
2024-02-05T12:02:45.575Z,58.57
2024-02-05T12:03:45.492Z,57.16
2024-02-05T12:04:45.402Z,57.69
2024-02-05T12:05:45.375Z,58.39
2024-02-05T12:06:45.293Z,57.84
2024-02-05T12:07:45.077Z,56.21
2024-02-05T12:08:44.954Z,56.30
2024-02-05T12:09:44.896Z,56.36
2024-02-05T12:10:44.785Z,56.61
2024-02-05T12:11:45.432Z,55.33
2024-02-05T12:12:44.595Z,55.66
2024-02-05T12:13:44.482Z,56.32
2024-02-05T12:14:44.413Z,56.71
2024-02-05T12:15:44.362Z,57.81
2024-02-05T12:16:44.166Z,59.76
2024-02-05T12:17:44.177Z,62.87
2024-02-05T12:18:46.787Z,60.26
2024-02-05T12:19:43.952Z,57.06
2024-02-05T12:20:44.154Z,56.17
2024-02-05T12:21:43.641Z,60.68
2024-02-05T12:22:43.475Z,60.50
2024-02-05T12:23:43.384Z,57.44
2024-02-05T12:24:43.274Z,58.16
2024-02-05T12:25:43.742Z,60.66
2024-02-05T12:26:43.007Z,59.78
2024-02-05T12:27:43.603Z,58.94
2024-02-05T12:28:42.765Z,58.67
2024-02-05T12:29:43.033Z,57.68
2024-02-05T12:30:42.583Z,58.92
2024-02-05T12:31:42.498Z,58.38
2024-02-05T12:32:47.958Z,58.02
2024-02-05T12:33:43.408Z,58.06
2024-02-05T12:34:42.246Z,58.61
2024-02-05T12:35:42.028Z,59.09